Mansfield Lahm Regional Airport
KMFD : now visible

Airfield :











YOU CAN JOIN US ON...

 
LOGIN :

Register | Disclaimer

   EN    FR    IT 

 









Legend :    VFR   Marginal VFR   IFR   Intensive IFR   Very Intensive IFR
Visi :
Ceiling :
>= 8 km
>= 3000ft
5 to 8 km
1000 to 3000 ft
1500m to 5 km
500 to 1000 ft
800 to 1500m
200 to 500 ft
< 800m
< 200 ft
Symbols :   Thunderstorms  Fog  Heavy snow  Heavy precipitations  Wind > 20 kt






- Airport Elevation : 1297 ft


KMFD - Mansfield Lahm Regional

CURRENT METAR :
  • 262352Z AUTO 31005KT 6SM BR BKN006 OVC025 07/07 A3022 RMK AO2 RAB32E48 CIG 004V008 SLP239 P0001 60003 T00670067 10078 20067 53020

EXPIRED METARs :
  • 262259Z AUTO 30005KT 6SM BR BKN005 BKN014 OVC026 07/07 A3020 RMK AO2 CIG 005V009 T00670067
  • 262245Z AUTO 31006KT 7SM FEW004 OVC026 07/07 A3019 RMK AO2 T00670067
  • 262233Z AUTO 35006KT 6SM BR BKN005 BKN009 OVC025 07/07 A3017 RMK AO2 CIG 003V008 T00670067
  • 262222Z AUTO 33007KT 4SM BR OVC004 07/07 A3017 RMK AO2 CIG 003V008 T00670067
  • 262201Z AUTO 34006KT 2SM BR OVC004 07/07 A3017 RMK AO2 CIG 003V008 T00670067
  • 262100Z AUTO 34008KT 4SM BR BKN006 OVC015 07/07 A3016 RMK AO2 CIG 004V011 T00720067

TAF KMFD
Valid from the 27 at 00:00 until the 28 at 00:00 UTC


262323Z 2700/2724 34006KT 6SM BR VCSH SCT009 OVC025
TEMPO 2700/2704 4SM BR BKN008
FM270400 33005KT 6SM BR OVC015
TEMPO 2708/2712 2SM BR OVC006
FM271800 VRB03KT P6SM VCSH OVC015
KZOB FIR / North America



MET'MAP, your aeronautical weather chart ! - Copyright ORBIFLY December 2007 - Disclaimer

ORBIFLY MET'MAP TEAM :

Programming & Development : Alexandra Zaïnal
Concept & original design : Baudouin d'Aumeries
Assistance for programming : Marc-Olivier Méhu
Technical & hardware support : Manuel Goepfert

Contact : metmap@orbifly.com




SOURCES & CREDITS :

   NOAA       Earth
Advisory